createdAt,value
2023-05-14T00:01:32.858Z,7.53
2023-05-14T00:04:55.678Z,7.43
2023-05-14T00:08:16.922Z,7.43
2023-05-14T00:11:38.929Z,7.75
2023-05-14T00:15:00.610Z,7.57
2023-05-14T00:18:22.021Z,7.85
2023-05-14T00:21:45.138Z,8.00
2023-05-14T00:25:08.688Z,7.47
2023-05-14T00:28:30.141Z,7.85
2023-05-14T00:31:52.057Z,8.00
2023-05-14T00:35:14.062Z,7.68
2023-05-14T00:38:39.600Z,8.82
2023-05-14T00:42:02.606Z,7.85
2023-05-14T00:45:24.074Z,8.70
2023-05-14T00:48:46.333Z,8.35
2023-05-14T00:52:10.071Z,8.50
2023-05-14T00:55:33.618Z,8.35
2023-05-14T00:58:55.249Z,8.98
2023-05-14T01:02:17.102Z,7.88
2023-05-14T01:05:45.008Z,9.10
2023-05-14T01:09:12.889Z,8.50
2023-05-14T01:12:41.279Z,8.95
2023-05-14T01:16:05.736Z,8.43
2023-05-14T01:19:41.533Z,8.30
2023-05-14T01:23:04.932Z,9.10
2023-05-14T01:26:26.493Z,8.52
2023-05-14T01:29:54.375Z,9.00
2023-05-14T01:33:19.237Z,8.98
2023-05-14T01:36:42.429Z,9.38
2023-05-14T01:40:09.422Z,8.95
2023-05-14T01:43:31.822Z,10.32
2023-05-14T01:46:53.951Z,9.52
2023-05-14T01:50:15.889Z,9.68
2023-05-14T01:53:37.689Z,9.43
2023-05-14T01:57:01.231Z,9.50
2023-05-14T02:00:25.850Z,9.80
2023-05-14T02:03:47.274Z,9.77
2023-05-14T02:07:09.071Z,9.38
2023-05-14T02:10:30.503Z,9.68
2023-05-14T02:13:53.089Z,9.48
2023-05-14T02:17:16.613Z,9.45
2023-05-14T02:20:38.363Z,9.75
2023-05-14T02:24:00.796Z,9.52
2023-05-14T02:27:22.273Z,9.45
2023-05-14T02:30:45.410Z,10.00
2023-05-14T02:34:07.772Z,9.07
2023-05-14T02:37:29.193Z,9.55
2023-05-14T02:40:51.013Z,9.82
2023-05-14T02:44:12.973Z,9.40
2023-05-14T02:47:38.038Z,9.68
2023-05-14T02:50:59.778Z,10.10
2023-05-14T02:54:21.534Z,9.40
2023-05-14T02:57:43.232Z,9.85
2023-05-14T03:01:04.770Z,9.65
2023-05-14T03:04:28.197Z,9.48
2023-05-14T03:07:51.444Z,9.52
2023-05-14T03:11:13.230Z,9.18
2023-05-14T03:14:35.338Z,9.40
2023-05-14T03:17:56.861Z,10.10
2023-05-14T03:21:20.069Z,9.15
2023-05-14T03:24:41.708Z,9.70
2023-05-14T03:28:03.101Z,9.60
2023-05-14T03:31:24.879Z,9.88
2023-05-14T03:34:46.669Z,9.63
2023-05-14T03:38:09.430Z,9.30
2023-05-14T03:41:31.480Z,10.02
2023-05-14T03:44:53.013Z,9.38
2023-05-14T03:48:15.226Z,9.60
2023-05-14T03:51:36.630Z,9.73
2023-05-14T03:55:01.345Z,9.35
2023-05-14T03:58:23.002Z,9.00
2023-05-14T04:01:45.553Z,9.05
2023-05-14T04:05:08.256Z,9.20
2023-05-14T04:08:30.161Z,8.98
2023-05-14T04:11:53.157Z,9.10
2023-05-14T04:15:14.865Z,9.45
2023-05-14T04:18:37.909Z,9.13
2023-05-14T04:21:59.392Z,9.57
2023-05-14T04:25:20.917Z,10.02
2023-05-14T04:28:43.791Z,9.07
2023-05-14T04:32:05.804Z,8.63
2023-05-14T04:35:27.723Z,9.35
2023-05-14T04:38:49.440Z,9.60
2023-05-14T04:42:10.944Z,10.30
2023-05-14T04:45:35.053Z,9.18
2023-05-14T04:48:57.673Z,10.07
2023-05-14T04:52:19.265Z,9.85
2023-05-14T04:55:40.892Z,8.77
2023-05-14T04:59:02.226Z,9.13
2023-05-14T05:02:25.526Z,9.63
2023-05-14T05:05:47.071Z,9.00
2023-05-14T05:09:09.473Z,9.13
2023-05-14T05:12:30.943Z,8.48
2023-05-14T05:15:52.327Z,8.30
2023-05-14T05:19:15.133Z,8.93
2023-05-14T05:22:37.254Z,9.10
2023-05-14T05:25:58.523Z,8.30
2023-05-14T05:29:19.632Z,9.15
2023-05-14T05:32:41.461Z,8.32
2023-05-14T05:36:04.732Z,7.60
2023-05-14T05:39:26.480Z,8.23
2023-05-14T05:42:48.010Z,7.90
2023-05-14T05:46:09.545Z,8.02
2023-05-14T05:49:31.323Z,7.93
2023-05-14T05:52:54.498Z,7.55
2023-05-14T05:56:16.056Z,6.85
2023-05-14T05:59:37.965Z,7.68
2023-05-14T06:02:59.270Z,6.70
2023-05-14T06:06:21.706Z,6.72
2023-05-14T06:09:44.636Z,6.80
2023-05-14T06:13:05.757Z,7.72
2023-05-14T06:16:27.601Z,7.15
2023-05-14T06:19:49.794Z,6.45
2023-05-14T06:23:12.357Z,6.97
2023-05-14T06:26:35.409Z,6.90
2023-05-14T06:29:56.960Z,6.78
2023-05-14T06:33:20.019Z,6.63
2023-05-14T06:36:42.322Z,6.90
2023-05-14T06:40:03.828Z,6.65
2023-05-14T06:43:26.821Z,6.57
2023-05-14T06:46:48.582Z,6.32
2023-05-14T06:50:11.575Z,6.95
2023-05-14T06:53:33.016Z,7.00
2023-05-14T06:56:54.786Z,6.80
2023-05-14T07:00:18.792Z,6.47
2023-05-14T07:03:40.521Z,6.57
2023-05-14T07:07:01.918Z,6.30
2023-05-14T07:10:23.256Z,6.32
2023-05-14T07:13:44.718Z,6.30
2023-05-14T07:17:07.805Z,7.13
2023-05-14T07:20:29.276Z,6.80
2023-05-14T07:23:51.017Z,6.75
2023-05-14T07:27:12.530Z,7.30
2023-05-14T07:30:34.141Z,9.77
2023-05-14T07:33:56.782Z,7.13
2023-05-14T07:37:19.019Z,6.50
2023-05-14T07:40:40.743Z,7.07
2023-05-14T07:44:02.019Z,6.70
2023-05-14T07:47:24.219Z,7.00
2023-05-14T07:50:46.960Z,6.82
2023-05-14T07:54:08.508Z,7.05
2023-05-14T07:57:30.532Z,6.65
2023-05-14T08:00:52.402Z,6.90
2023-05-14T08:04:16.142Z,7.00
2023-05-14T08:07:39.548Z,7.45
2023-05-14T08:11:01.882Z,6.88
2023-05-14T08:14:23.290Z,6.97
2023-05-14T08:17:44.773Z,7.38
2023-05-14T08:21:07.133Z,6.65
2023-05-14T08:24:30.277Z,6.22
2023-05-14T08:27:53.622Z,6.80
2023-05-14T08:31:15.231Z,6.80
2023-05-14T08:34:37.129Z,6.57
2023-05-14T08:37:58.788Z,6.68
2023-05-14T08:41:22.683Z,6.35
2023-05-14T08:44:49.159Z,6.80
2023-05-14T08:48:13.942Z,6.88
2023-05-14T08:51:36.324Z,6.43
2023-05-14T08:55:00.276Z,7.32
2023-05-14T08:58:23.442Z,6.00
2023-05-14T09:01:48.649Z,6.75
2023-05-14T09:05:11.433Z,6.68
2023-05-14T09:08:33.278Z,6.00
2023-05-14T09:11:55.241Z,6.40
2023-05-14T09:15:18.446Z,6.13
2023-05-14T09:18:44.756Z,5.68
2023-05-14T09:22:10.300Z,5.07
2023-05-14T09:25:33.096Z,5.45
2023-05-14T09:28:56.148Z,4.93
2023-05-14T09:32:20.599Z,4.90
2023-05-14T09:35:43.362Z,5.20
2023-05-14T09:39:05.450Z,5.75
2023-05-14T09:42:27.470Z,5.32
2023-05-14T09:45:49.026Z,5.88
2023-05-14T09:49:12.408Z,4.60
2023-05-14T09:52:34.352Z,4.13
2023-05-14T09:55:56.186Z,4.15
2023-05-14T09:59:17.964Z,3.97
2023-05-14T10:02:41.584Z,4.30
2023-05-14T10:06:07.252Z,4.43
2023-05-14T10:09:30.370Z,4.38
2023-05-14T10:12:57.516Z,4.10
2023-05-14T10:16:23.293Z,4.07
2023-05-14T10:19:48.699Z,4.43
2023-05-14T10:23:11.758Z,4.43
2023-05-14T10:26:34.649Z,4.47
2023-05-14T10:29:57.484Z,4.30
2023-05-14T10:33:19.075Z,4.68
2023-05-14T10:36:41.028Z,4.53
2023-05-14T10:40:06.847Z,4.18
2023-05-14T10:43:30.892Z,5.10
2023-05-14T10:46:43.050Z,4.25
2023-05-14T10:50:07.253Z,4.50
2023-05-14T10:53:34.548Z,4.72
2023-05-14T10:56:59.863Z,4.20
2023-05-14T11:00:21.557Z,4.85
2023-05-14T11:03:47.260Z,4.65
2023-05-14T11:07:09.243Z,4.38
2023-05-14T11:10:30.840Z,4.75
2023-05-14T11:13:54.816Z,4.43
2023-05-14T11:17:16.764Z,5.65
2023-05-14T11:20:38.642Z,3.85
2023-05-14T11:24:01.021Z,4.20
2023-05-14T11:27:24.295Z,3.85
2023-05-14T11:30:47.388Z,4.00
2023-05-14T11:34:10.051Z,4.47
2023-05-14T11:37:31.901Z,4.10
2023-05-14T11:40:54.217Z,3.83
2023-05-14T11:44:16.013Z,4.20
2023-05-14T11:47:39.298Z,3.83
2023-05-14T11:51:00.886Z,4.15
2023-05-14T11:54:22.050Z,4.07
2023-05-14T11:57:44.683Z,3.97
2023-05-14T12:01:06.552Z,3.70
2023-05-14T12:04:31.362Z,4.10
2023-05-14T12:07:52.786Z,4.30
2023-05-14T12:11:14.759Z,3.78
2023-05-14T12:14:38.917Z,4.25
2023-05-14T12:18:02.065Z,3.85
2023-05-14T12:21:25.573Z,3.92
2023-05-14T12:24:54.827Z,4.03
2023-05-14T12:28:17.106Z,4.25
2023-05-14T12:31:38.646Z,4.13
2023-05-14T12:35:01.114Z,4.03
2023-05-14T12:38:24.006Z,5.75
2023-05-14T12:41:46.764Z,4.68
2023-05-14T12:45:09.039Z,4.07
2023-05-14T12:48:30.489Z,6.22
2023-05-14T12:52:03.241Z,6.07
2023-05-14T12:55:37.110Z,4.88
2023-05-14T12:58:58.864Z,4.97
2023-05-14T13:02:20.584Z,4.72
2023-05-14T13:05:42.114Z,5.65
2023-05-14T13:09:04.378Z,5.38
2023-05-14T13:12:27.482Z,4.60
2023-05-14T13:15:48.810Z,5.20
2023-05-14T13:19:10.246Z,5.20
2023-05-14T13:22:32.010Z,5.05
2023-05-14T13:25:53.612Z,4.97
2023-05-14T13:29:16.280Z,5.18
2023-05-14T13:32:37.551Z,4.60
2023-05-14T13:35:59.566Z,7.45
2023-05-14T13:39:22.820Z,5.40
2023-05-14T13:42:44.640Z,4.80
2023-05-14T13:46:08.226Z,4.60
2023-05-14T13:49:29.764Z,4.45
2023-05-14T13:52:51.122Z,4.93
2023-05-14T13:56:12.723Z,4.82
2023-05-14T13:59:34.561Z,4.90
2023-05-14T14:02:57.989Z,4.60
2023-05-14T14:06:19.630Z,4.40
2023-05-14T14:09:40.847Z,4.68
2023-05-14T14:13:02.092Z,4.65
2023-05-14T14:16:24.069Z,5.75
2023-05-14T14:19:46.645Z,5.85
2023-05-14T14:23:08.856Z,6.72
2023-05-14T14:26:30.334Z,6.07
2023-05-14T14:29:52.067Z,5.32
2023-05-14T14:33:13.456Z,5.25
2023-05-14T14:36:36.490Z,4.95
2023-05-14T14:39:57.797Z,4.47
2023-05-14T14:43:19.563Z,4.55
2023-05-14T14:46:42.862Z,4.85
2023-05-14T14:50:05.113Z,4.50
2023-05-14T14:53:27.864Z,4.75
2023-05-14T14:56:52.329Z,4.57
2023-05-14T15:00:15.557Z,4.50
2023-05-14T15:03:37.453Z,4.80
2023-05-14T15:06:59.575Z,5.20
2023-05-14T15:10:22.705Z,4.38
2023-05-14T15:13:44.492Z,4.50
2023-05-14T15:17:06.417Z,4.63
2023-05-14T15:20:28.027Z,4.15
2023-05-14T15:23:49.500Z,4.70
2023-05-14T15:27:12.669Z,4.53
2023-05-14T15:30:34.604Z,4.60
2023-05-14T15:33:56.639Z,4.28
2023-05-14T15:37:18.524Z,4.88
2023-05-14T15:40:41.875Z,4.20
2023-05-14T15:44:05.446Z,4.45
2023-05-14T15:47:27.115Z,4.95
2023-05-14T15:50:49.729Z,4.30
2023-05-14T15:54:11.929Z,4.45
2023-05-14T15:57:33.192Z,4.30
2023-05-14T16:00:56.300Z,4.13
2023-05-14T16:04:17.764Z,4.32
2023-05-14T16:07:39.762Z,4.00
2023-05-14T16:11:01.107Z,4.38
2023-05-14T16:14:22.775Z,4.60
2023-05-14T16:17:45.534Z,4.30
2023-05-14T16:21:07.226Z,4.53
2023-05-14T16:24:28.670Z,4.40
2023-05-14T16:27:50.460Z,4.40
2023-05-14T16:31:12.564Z,4.93
2023-05-14T16:34:35.612Z,4.72
2023-05-14T16:37:57.087Z,4.20
2023-05-14T16:41:19.368Z,4.28
2023-05-14T16:44:41.150Z,4.78
2023-05-14T16:48:02.806Z,4.22
2023-05-14T16:51:26.271Z,4.80
2023-05-14T16:54:47.835Z,4.32
2023-05-14T16:58:09.572Z,4.38
2023-05-14T17:01:30.974Z,4.30
2023-05-14T17:04:54.279Z,4.75
2023-05-14T17:08:17.217Z,6.93
2023-05-14T17:11:38.745Z,5.00
2023-05-14T17:15:02.995Z,4.55
2023-05-14T17:18:25.956Z,4.75
2023-05-14T17:21:47.618Z,5.13
2023-05-14T17:25:11.199Z,5.32
2023-05-14T17:28:33.524Z,5.13
2023-05-14T17:31:55.589Z,4.80
2023-05-14T17:35:17.543Z,5.10
2023-05-14T17:38:39.134Z,5.03
2023-05-14T17:42:03.591Z,4.88
2023-05-14T17:45:25.589Z,4.63
2023-05-14T17:48:47.364Z,4.90
2023-05-14T17:52:09.334Z,5.35
2023-05-14T17:55:30.817Z,5.20
2023-05-14T17:58:53.993Z,5.25
2023-05-14T18:02:15.924Z,4.78
2023-05-14T18:05:38.032Z,5.45
2023-05-14T18:08:59.605Z,5.57
2023-05-14T18:12:20.899Z,5.60
2023-05-14T18:15:44.779Z,7.10
2023-05-14T18:19:06.525Z,5.55
2023-05-14T18:22:27.840Z,4.82
2023-05-14T18:25:49.392Z,5.55
2023-05-14T18:29:11.003Z,4.68
2023-05-14T18:32:33.658Z,5.10
2023-05-14T18:35:55.275Z,5.20
2023-05-14T18:39:17.364Z,5.57
2023-05-14T18:42:38.683Z,5.20
2023-05-14T18:46:00.209Z,5.32
2023-05-14T18:49:23.414Z,4.80
2023-05-14T18:52:44.578Z,5.13
2023-05-14T18:56:06.374Z,5.10
2023-05-14T18:59:28.357Z,5.07
2023-05-14T19:02:49.956Z,5.05
2023-05-14T19:06:13.172Z,5.07
2023-05-14T19:09:34.809Z,5.80
2023-05-14T19:12:57.530Z,5.40
2023-05-14T19:16:19.095Z,5.47
2023-05-14T19:19:41.036Z,5.18
2023-05-14T19:23:04.300Z,5.70
2023-05-14T19:26:26.375Z,5.75
2023-05-14T19:29:47.920Z,5.40
2023-05-14T19:33:09.306Z,5.60
2023-05-14T19:36:32.299Z,5.47
2023-05-14T19:39:55.026Z,5.90
2023-05-14T19:43:16.300Z,6.30
2023-05-14T19:46:38.033Z,6.88
2023-05-14T19:49:59.571Z,7.00
2023-05-14T19:53:20.833Z,6.68
2023-05-14T19:56:43.587Z,7.05
2023-05-14T20:00:07.361Z,6.90
2023-05-14T20:03:32.204Z,7.35
2023-05-14T20:06:53.940Z,6.50
2023-05-14T20:10:15.918Z,7.93
2023-05-14T20:13:38.931Z,7.43
2023-05-14T20:17:00.498Z,6.38
2023-05-14T20:20:22.342Z,6.55
2023-05-14T20:23:44.043Z,7.57
2023-05-14T20:27:06.303Z,6.35
2023-05-14T20:30:29.059Z,6.90
2023-05-14T20:33:51.727Z,6.97
2023-05-14T20:37:12.989Z,7.47
2023-05-14T20:40:34.615Z,6.75
2023-05-14T20:43:56.022Z,6.82
2023-05-14T20:47:21.465Z,6.40
2023-05-14T20:50:43.006Z,6.32
2023-05-14T20:54:04.306Z,6.20
2023-05-14T20:57:26.016Z,6.70
2023-05-14T21:00:48.391Z,6.78
2023-05-14T21:04:11.765Z,6.15
2023-05-14T21:07:33.561Z,6.45
2023-05-14T21:10:55.064Z,7.00
2023-05-14T21:18:08.717Z,6.85
2023-05-14T21:21:32.053Z,6.78
2023-05-14T21:24:54.228Z,6.47
2023-05-14T21:28:16.012Z,6.78
2023-05-14T21:31:37.329Z,6.03
2023-05-14T21:34:58.960Z,6.25
2023-05-14T21:38:21.591Z,6.75
2023-05-14T21:41:43.424Z,5.80
2023-05-14T21:45:05.499Z,6.07
2023-05-14T21:48:27.213Z,6.20
2023-05-14T21:51:52.853Z,5.97
2023-05-14T21:55:16.176Z,6.03
2023-05-14T21:58:37.950Z,6.15
2023-05-14T22:05:24.264Z,6.40
2023-05-14T22:08:46.057Z,6.70
2023-05-14T22:12:09.574Z,6.40
2023-05-14T22:15:31.191Z,7.07
2023-05-14T22:18:52.526Z,6.25
2023-05-14T22:22:14.403Z,6.53
2023-05-14T22:25:36.434Z,6.80
2023-05-14T22:28:59.117Z,6.38
2023-05-14T22:32:20.770Z,6.78
2023-05-14T22:35:42.579Z,6.90
2023-05-14T22:39:04.725Z,6.35
2023-05-14T22:42:27.287Z,6.60
2023-05-14T22:45:50.351Z,6.80
2023-05-14T22:49:11.726Z,6.35
2023-05-14T22:52:32.898Z,6.55
2023-05-14T22:56:45.981Z,6.78
2023-05-14T23:00:09.914Z,6.70
2023-05-14T23:03:32.710Z,6.47
2023-05-14T23:06:54.661Z,6.50
2023-05-14T23:10:16.120Z,6.90
2023-05-14T23:13:38.685Z,7.07
2023-05-14T23:17:00.352Z,7.38
2023-05-14T23:20:23.292Z,6.68
2023-05-14T23:23:45.365Z,6.93
2023-05-14T23:27:07.279Z,6.93
2023-05-14T23:30:28.700Z,7.10
2023-05-14T23:33:50.776Z,7.15
2023-05-14T23:37:14.021Z,7.18
2023-05-14T23:40:35.871Z,7.20
2023-05-14T23:43:57.655Z,6.97
2023-05-14T23:47:19.094Z,7.60
2023-05-14T23:50:40.799Z,7.40
2023-05-14T23:54:03.871Z,7.53
2023-05-14T23:57:26.012Z,7.40
